sensor_id;sensor_type;location;lat;lon;timestamp;P1;durP1;ratioP1;P2;durP2;ratioP2
77726;SDS011;68312;53.502;10.030;2023-06-04T00:01:58;3.92;;;2.10;;
77726;SDS011;68312;53.502;10.030;2023-06-04T00:04:25;3.95;;;2.45;;
77726;SDS011;68312;53.502;10.030;2023-06-04T00:06:51;5.32;;;2.78;;
77726;SDS011;68312;53.502;10.030;2023-06-04T00:09:16;5.25;;;2.28;;
77726;SDS011;68312;53.502;10.030;2023-06-04T00:11:42;6.53;;;2.78;;
77726;SDS011;68312;53.502;10.030;2023-06-04T00:14:07;4.30;;;2.38;;
77726;SDS011;68312;53.502;10.030;2023-06-04T00:16:33;4.38;;;2.45;;
77726;SDS011;68312;53.502;10.030;2023-06-04T00:18:59;4.65;;;2.28;;
77726;SDS011;68312;53.502;10.030;2023-06-04T00:21:24;3.92;;;2.40;;
77726;SDS011;68312;53.502;10.030;2023-06-04T00:23:53;6.40;;;2.40;;
77726;SDS011;68312;53.502;10.030;2023-06-04T00:26:21;4.43;;;2.60;;
77726;SDS011;68312;53.502;10.030;2023-06-04T00:28:47;4.53;;;2.40;;
77726;SDS011;68312;53.502;10.030;2023-06-04T00:31:12;6.45;;;2.67;;
77726;SDS011;68312;53.502;10.030;2023-06-04T00:33:41;5.60;;;2.50;;
77726;SDS011;68312;53.502;10.030;2023-06-04T00:36:07;4.85;;;2.30;;
77726;SDS011;68312;53.502;10.030;2023-06-04T00:38:33;3.92;;;2.20;;
77726;SDS011;68312;53.502;10.030;2023-06-04T00:40:58;6.00;;;2.53;;
77726;SDS011;68312;53.502;10.030;2023-06-04T00:43:24;4.65;;;2.17;;
77726;SDS011;68312;53.502;10.030;2023-06-04T00:45:49;3.72;;;2.30;;
77726;SDS011;68312;53.502;10.030;2023-06-04T00:48:15;4.35;;;2.47;;
77726;SDS011;68312;53.502;10.030;2023-06-04T00:50:40;5.25;;;2.95;;
77726;SDS011;68312;53.502;10.030;2023-06-04T00:53:07;4.78;;;2.20;;
77726;SDS011;68312;53.502;10.030;2023-06-04T00:55:32;3.75;;;2.20;;
77726;SDS011;68312;53.502;10.030;2023-06-04T00:57:58;4.38;;;2.10;;
77726;SDS011;68312;53.502;10.030;2023-06-04T01:00:23;4.78;;;2.45;;
77726;SDS011;68312;53.502;10.030;2023-06-04T01:02:49;4.38;;;2.20;;
77726;SDS011;68312;53.502;10.030;2023-06-04T01:05:23;5.40;;;2.53;;
77726;SDS011;68312;53.502;10.030;2023-06-04T01:10:27;3.83;;;2.20;;
77726;SDS011;68312;53.502;10.030;2023-06-04T01:12:53;4.90;;;2.20;;
77726;SDS011;68312;53.502;10.030;2023-06-04T01:15:19;3.92;;;2.10;;
77726;SDS011;68312;53.502;10.030;2023-06-04T01:17:45;4.18;;;2.03;;
77726;SDS011;68312;53.502;10.030;2023-06-04T01:22:56;4.65;;;2.63;;
77726;SDS011;68312;53.502;10.030;2023-06-04T01:25:53;6.25;;;2.72;;
77726;SDS011;68312;53.502;10.030;2023-06-04T01:28:19;3.88;;;2.30;;
77726;SDS011;68312;53.502;10.030;2023-06-04T01:30:45;6.72;;;2.78;;
77726;SDS011;68312;53.502;10.030;2023-06-04T01:33:13;8.48;;;2.92;;
77726;SDS011;68312;53.502;10.030;2023-06-04T01:35:44;5.82;;;2.50;;
77726;SDS011;68312;53.502;10.030;2023-06-04T01:38:10;4.72;;;2.40;;
77726;SDS011;68312;53.502;10.030;2023-06-04T01:40:36;5.00;;;2.95;;
77726;SDS011;68312;53.502;10.030;2023-06-04T01:43:01;3.85;;;2.30;;
77726;SDS011;68312;53.502;10.030;2023-06-04T01:45:28;5.93;;;2.63;;
77726;SDS011;68312;53.502;10.030;2023-06-04T01:47:54;6.50;;;2.58;;
77726;SDS011;68312;53.502;10.030;2023-06-04T01:50:21;5.95;;;2.88;;
77726;SDS011;68312;53.502;10.030;2023-06-04T01:52:46;5.28;;;2.70;;
77726;SDS011;68312;53.502;10.030;2023-06-04T01:55:16;4.80;;;2.75;;
77726;SDS011;68312;53.502;10.030;2023-06-04T01:57:43;4.70;;;2.45;;
77726;SDS011;68312;53.502;10.030;2023-06-04T02:00:11;5.55;;;2.42;;
77726;SDS011;68312;53.502;10.030;2023-06-04T02:02:38;5.30;;;3.03;;
77726;SDS011;68312;53.502;10.030;2023-06-04T02:05:07;6.45;;;2.40;;
77726;SDS011;68312;53.502;10.030;2023-06-04T02:07:35;4.80;;;2.85;;
77726;SDS011;68312;53.502;10.030;2023-06-04T02:10:06;6.40;;;2.53;;
77726;SDS011;68312;53.502;10.030;2023-06-04T02:12:40;5.75;;;2.50;;
77726;SDS011;68312;53.502;10.030;2023-06-04T02:15:22;3.70;;;2.25;;
77726;SDS011;68312;53.502;10.030;2023-06-04T02:17:50;4.30;;;2.33;;
77726;SDS011;68312;53.502;10.030;2023-06-04T02:20:21;5.60;;;2.70;;
77726;SDS011;68312;53.502;10.030;2023-06-04T02:22:47;4.45;;;2.47;;
77726;SDS011;68312;53.502;10.030;2023-06-04T02:25:12;4.03;;;2.35;;
77726;SDS011;68312;53.502;10.030;2023-06-04T02:27:38;8.10;;;3.15;;
77726;SDS011;68312;53.502;10.030;2023-06-04T02:30:03;3.92;;;2.63;;
77726;SDS011;68312;53.502;10.030;2023-06-04T02:32:30;4.70;;;2.83;;
77726;SDS011;68312;53.502;10.030;2023-06-04T02:34:55;4.47;;;2.25;;
77726;SDS011;68312;53.502;10.030;2023-06-04T02:37:21;5.28;;;2.58;;
77726;SDS011;68312;53.502;10.030;2023-06-04T02:39:47;4.50;;;2.50;;
77726;SDS011;68312;53.502;10.030;2023-06-04T02:42:12;4.80;;;2.70;;
77726;SDS011;68312;53.502;10.030;2023-06-04T02:44:38;6.40;;;2.47;;
77726;SDS011;68312;53.502;10.030;2023-06-04T02:47:03;3.60;;;2.33;;
77726;SDS011;68312;53.502;10.030;2023-06-04T02:49:29;6.30;;;2.60;;
77726;SDS011;68312;53.502;10.030;2023-06-04T02:51:54;4.32;;;2.55;;
77726;SDS011;68312;53.502;10.030;2023-06-04T02:54:23;5.43;;;2.78;;
77726;SDS011;68312;53.502;10.030;2023-06-04T02:56:49;5.32;;;3.00;;
77726;SDS011;68312;53.502;10.030;2023-06-04T02:59:15;5.57;;;2.92;;
77726;SDS011;68312;53.502;10.030;2023-06-04T03:01:40;6.35;;;2.95;;
77726;SDS011;68312;53.502;10.030;2023-06-04T03:04:06;5.80;;;2.88;;
77726;SDS011;68312;53.502;10.030;2023-06-04T03:06:31;6.03;;;2.92;;
77726;SDS011;68312;53.502;10.030;2023-06-04T03:08:57;4.15;;;2.70;;
77726;SDS011;68312;53.502;10.030;2023-06-04T03:11:22;5.57;;;2.95;;
77726;SDS011;68312;53.502;10.030;2023-06-04T03:13:51;5.47;;;2.42;;
77726;SDS011;68312;53.502;10.030;2023-06-04T03:16:16;4.97;;;2.70;;
77726;SDS011;68312;53.502;10.030;2023-06-04T03:18:42;5.63;;;2.67;;
77726;SDS011;68312;53.502;10.030;2023-06-04T03:21:08;3.85;;;2.38;;
77726;SDS011;68312;53.502;10.030;2023-06-04T03:23:34;7.50;;;2.35;;
77726;SDS011;68312;53.502;10.030;2023-06-04T03:26:03;5.35;;;2.72;;
77726;SDS011;68312;53.502;10.030;2023-06-04T03:28:33;4.28;;;2.15;;
77726;SDS011;68312;53.502;10.030;2023-06-04T03:30:59;5.78;;;2.30;;
77726;SDS011;68312;53.502;10.030;2023-06-04T03:33:25;5.43;;;2.80;;
77726;SDS011;68312;53.502;10.030;2023-06-04T03:35:51;4.68;;;2.60;;
77726;SDS011;68312;53.502;10.030;2023-06-04T03:38:17;4.53;;;2.60;;
77726;SDS011;68312;53.502;10.030;2023-06-04T03:40:45;3.47;;;2.20;;
77726;SDS011;68312;53.502;10.030;2023-06-04T03:43:11;4.65;;;2.40;;
77726;SDS011;68312;53.502;10.030;2023-06-04T03:45:37;4.10;;;2.05;;
77726;SDS011;68312;53.502;10.030;2023-06-04T03:48:02;4.68;;;2.47;;
77726;SDS011;68312;53.502;10.030;2023-06-04T03:50:28;5.05;;;2.95;;
77726;SDS011;68312;53.502;10.030;2023-06-04T03:52:57;5.22;;;2.50;;
77726;SDS011;68312;53.502;10.030;2023-06-04T03:55:22;4.45;;;2.40;;
77726;SDS011;68312;53.502;10.030;2023-06-04T03:57:48;5.60;;;2.90;;
77726;SDS011;68312;53.502;10.030;2023-06-04T04:00:13;4.28;;;2.50;;
77726;SDS011;68312;53.502;10.030;2023-06-04T04:02:40;6.30;;;2.88;;
77726;SDS011;68312;53.502;10.030;2023-06-04T04:05:09;6.47;;;2.53;;
77726;SDS011;68312;53.502;10.030;2023-06-04T04:07:35;4.10;;;2.45;;
77726;SDS011;68312;53.502;10.030;2023-06-04T04:10:00;5.38;;;2.70;;
77726;SDS011;68312;53.502;10.030;2023-06-04T04:12:26;5.55;;;2.38;;
77726;SDS011;68312;53.502;10.030;2023-06-04T04:14:52;5.35;;;2.40;;
77726;SDS011;68312;53.502;10.030;2023-06-04T04:17:17;4.32;;;2.58;;
77726;SDS011;68312;53.502;10.030;2023-06-04T04:19:43;4.30;;;2.60;;
77726;SDS011;68312;53.502;10.030;2023-06-04T04:22:10;4.45;;;2.50;;
77726;SDS011;68312;53.502;10.030;2023-06-04T04:24:35;3.83;;;2.42;;
77726;SDS011;68312;53.502;10.030;2023-06-04T04:27:01;5.50;;;3.03;;
77726;SDS011;68312;53.502;10.030;2023-06-04T04:29:26;3.33;;;2.10;;
77726;SDS011;68312;53.502;10.030;2023-06-04T04:31:52;3.75;;;2.40;;
77726;SDS011;68312;53.502;10.030;2023-06-04T04:34:18;5.03;;;3.28;;
77726;SDS011;68312;53.502;10.030;2023-06-04T04:36:43;7.57;;;3.05;;
77726;SDS011;68312;53.502;10.030;2023-06-04T04:39:08;6.22;;;2.97;;
77726;SDS011;68312;53.502;10.030;2023-06-04T04:41:35;3.78;;;2.20;;
77726;SDS011;68312;53.502;10.030;2023-06-04T04:44:05;5.90;;;2.70;;
77726;SDS011;68312;53.502;10.030;2023-06-04T04:46:31;5.55;;;2.63;;
77726;SDS011;68312;53.502;10.030;2023-06-04T04:48:56;5.32;;;2.60;;
77726;SDS011;68312;53.502;10.030;2023-06-04T04:51:22;6.88;;;2.85;;
77726;SDS011;68312;53.502;10.030;2023-06-04T04:53:48;7.18;;;2.40;;
77726;SDS011;68312;53.502;10.030;2023-06-04T04:56:13;6.28;;;2.30;;
77726;SDS011;68312;53.502;10.030;2023-06-04T04:58:39;5.38;;;2.17;;
77726;SDS011;68312;53.502;10.030;2023-06-04T05:01:04;5.85;;;2.42;;
77726;SDS011;68312;53.502;10.030;2023-06-04T05:03:33;3.78;;;2.33;;
77726;SDS011;68312;53.502;10.030;2023-06-04T05:05:58;8.88;;;2.05;;
77726;SDS011;68312;53.502;10.030;2023-06-04T05:08:24;4.13;;;2.00;;
77726;SDS011;68312;53.502;10.030;2023-06-04T05:10:50;8.82;;;2.47;;
77726;SDS011;68312;53.502;10.030;2023-06-04T05:13:15;6.03;;;2.70;;
77726;SDS011;68312;53.502;10.030;2023-06-04T05:15:41;4.90;;;2.45;;
77726;SDS011;68312;53.502;10.030;2023-06-04T05:18:07;7.15;;;2.35;;
77726;SDS011;68312;53.502;10.030;2023-06-04T05:20:32;6.13;;;2.20;;
77726;SDS011;68312;53.502;10.030;2023-06-04T05:23:01;4.20;;;2.42;;
77726;SDS011;68312;53.502;10.030;2023-06-04T05:25:26;6.32;;;2.25;;
77726;SDS011;68312;53.502;10.030;2023-06-04T05:27:52;4.95;;;2.35;;
77726;SDS011;68312;53.502;10.030;2023-06-04T05:30:17;6.35;;;2.28;;
77726;SDS011;68312;53.502;10.030;2023-06-04T05:32:46;5.22;;;2.78;;
77726;SDS011;68312;53.502;10.030;2023-06-04T05:35:13;4.63;;;2.20;;
77726;SDS011;68312;53.502;10.030;2023-06-04T05:37:38;6.53;;;2.33;;
77726;SDS011;68312;53.502;10.030;2023-06-04T05:40:04;6.90;;;2.92;;
77726;SDS011;68312;53.502;10.030;2023-06-04T05:42:31;5.60;;;2.72;;
77726;SDS011;68312;53.502;10.030;2023-06-04T05:44:56;5.38;;;2.50;;
77726;SDS011;68312;53.502;10.030;2023-06-04T05:47:22;7.03;;;3.03;;
77726;SDS011;68312;53.502;10.030;2023-06-04T05:49:47;8.82;;;3.35;;
77726;SDS011;68312;53.502;10.030;2023-06-04T05:52:13;7.78;;;2.75;;
77726;SDS011;68312;53.502;10.030;2023-06-04T05:54:38;9.10;;;2.70;;
77726;SDS011;68312;53.502;10.030;2023-06-04T05:57:04;6.28;;;3.60;;
77726;SDS011;68312;53.502;10.030;2023-06-04T05:59:30;8.10;;;4.15;;
77726;SDS011;68312;53.502;10.030;2023-06-04T06:01:56;6.93;;;3.85;;
77726;SDS011;68312;53.502;10.030;2023-06-04T06:04:22;5.38;;;2.60;;
77726;SDS011;68312;53.502;10.030;2023-06-04T06:06:48;5.85;;;2.50;;
77726;SDS011;68312;53.502;10.030;2023-06-04T06:09:14;5.43;;;2.42;;
77726;SDS011;68312;53.502;10.030;2023-06-04T06:11:41;4.30;;;2.13;;
77726;SDS011;68312;53.502;10.030;2023-06-04T06:14:06;6.53;;;2.22;;
77726;SDS011;68312;53.502;10.030;2023-06-04T06:16:32;5.10;;;2.20;;
77726;SDS011;68312;53.502;10.030;2023-06-04T06:18:57;6.80;;;2.60;;
77726;SDS011;68312;53.502;10.030;2023-06-04T06:21:23;8.05;;;2.65;;
77726;SDS011;68312;53.502;10.030;2023-06-04T06:23:48;9.90;;;2.58;;
77726;SDS011;68312;53.502;10.030;2023-06-04T06:26:14;6.47;;;2.50;;
77726;SDS011;68312;53.502;10.030;2023-06-04T06:28:39;5.75;;;2.55;;
77726;SDS011;68312;53.502;10.030;2023-06-04T06:31:05;10.98;;;2.33;;
77726;SDS011;68312;53.502;10.030;2023-06-04T06:33:31;6.57;;;2.22;;
77726;SDS011;68312;53.502;10.030;2023-06-04T06:35:57;6.93;;;2.30;;
77726;SDS011;68312;53.502;10.030;2023-06-04T06:38:22;3.83;;;1.83;;
77726;SDS011;68312;53.502;10.030;2023-06-04T06:40:48;4.55;;;1.95;;
77726;SDS011;68312;53.502;10.030;2023-06-04T06:43:14;6.05;;;1.95;;
77726;SDS011;68312;53.502;10.030;2023-06-04T06:45:39;5.60;;;1.75;;
77726;SDS011;68312;53.502;10.030;2023-06-04T06:48:05;5.55;;;2.20;;
77726;SDS011;68312;53.502;10.030;2023-06-04T06:50:30;7.07;;;2.38;;
77726;SDS011;68312;53.502;10.030;2023-06-04T06:52:56;4.53;;;2.20;;
77726;SDS011;68312;53.502;10.030;2023-06-04T06:55:21;11.35;;;2.78;;
77726;SDS011;68312;53.502;10.030;2023-06-04T06:57:47;6.28;;;2.20;;
77726;SDS011;68312;53.502;10.030;2023-06-04T07:00:12;5.15;;;1.92;;
77726;SDS011;68312;53.502;10.030;2023-06-04T07:02:39;5.07;;;1.90;;
77726;SDS011;68312;53.502;10.030;2023-06-04T07:05:04;4.38;;;1.85;;
77726;SDS011;68312;53.502;10.030;2023-06-04T07:07:30;5.05;;;2.30;;
77726;SDS011;68312;53.502;10.030;2023-06-04T07:09:55;4.15;;;1.55;;
77726;SDS011;68312;53.502;10.030;2023-06-04T07:12:21;6.55;;;2.10;;
77726;SDS011;68312;53.502;10.030;2023-06-04T07:14:46;5.00;;;1.67;;
77726;SDS011;68312;53.502;10.030;2023-06-04T07:17:12;6.50;;;1.58;;
77726;SDS011;68312;53.502;10.030;2023-06-04T07:19:37;5.10;;;1.60;;
77726;SDS011;68312;53.502;10.030;2023-06-04T07:22:03;4.30;;;1.60;;
77726;SDS011;68312;53.502;10.030;2023-06-04T07:24:29;4.05;;;1.63;;
77726;SDS011;68312;53.502;10.030;2023-06-04T07:26:57;4.38;;;1.80;;
77726;SDS011;68312;53.502;10.030;2023-06-04T07:29:23;5.75;;;2.38;;
77726;SDS011;68312;53.502;10.030;2023-06-04T07:31:48;4.70;;;1.48;;
77726;SDS011;68312;53.502;10.030;2023-06-04T07:34:14;4.85;;;1.50;;
77726;SDS011;68312;53.502;10.030;2023-06-04T07:36:39;3.05;;;1.25;;
77726;SDS011;68312;53.502;10.030;2023-06-04T07:39:05;5.95;;;1.55;;
77726;SDS011;68312;53.502;10.030;2023-06-04T07:41:30;4.18;;;1.23;;
77726;SDS011;68312;53.502;10.030;2023-06-04T07:43:56;3.90;;;1.52;;
77726;SDS011;68312;53.502;10.030;2023-06-04T07:46:21;4.85;;;1.55;;
77726;SDS011;68312;53.502;10.030;2023-06-04T07:48:47;7.47;;;1.92;;
77726;SDS011;68312;53.502;10.030;2023-06-04T07:51:12;4.88;;;1.67;;
77726;SDS011;68312;53.502;10.030;2023-06-04T07:53:38;6.13;;;1.70;;
77726;SDS011;68312;53.502;10.030;2023-06-04T07:56:05;9.73;;;2.08;;
77726;SDS011;68312;53.502;10.030;2023-06-04T07:58:31;7.82;;;1.63;;
77726;SDS011;68312;53.502;10.030;2023-06-04T08:00:57;6.70;;;1.60;;
77726;SDS011;68312;53.502;10.030;2023-06-04T08:03:25;6.13;;;1.95;;
77726;SDS011;68312;53.502;10.030;2023-06-04T08:05:50;4.63;;;1.88;;
77726;SDS011;68312;53.502;10.030;2023-06-04T08:08:16;5.00;;;1.33;;
77726;SDS011;68312;53.502;10.030;2023-06-04T08:10:42;4.75;;;1.60;;
77726;SDS011;68312;53.502;10.030;2023-06-04T08:13:07;3.85;;;1.52;;
77726;SDS011;68312;53.502;10.030;2023-06-04T08:15:33;4.57;;;1.58;;
77726;SDS011;68312;53.502;10.030;2023-06-04T08:17:59;4.35;;;1.52;;
77726;SDS011;68312;53.502;10.030;2023-06-04T08:20:24;2.92;;;1.65;;
77726;SDS011;68312;53.502;10.030;2023-06-04T08:22:49;6.78;;;1.77;;
77726;SDS011;68312;53.502;10.030;2023-06-04T08:25:15;5.40;;;1.30;;
77726;SDS011;68312;53.502;10.030;2023-06-04T08:27:41;5.43;;;1.35;;
77726;SDS011;68312;53.502;10.030;2023-06-04T08:30:07;3.40;;;1.25;;
77726;SDS011;68312;53.502;10.030;2023-06-04T08:32:33;3.55;;;1.30;;
77726;SDS011;68312;53.502;10.030;2023-06-04T08:34:59;4.40;;;1.55;;
77726;SDS011;68312;53.502;10.030;2023-06-04T08:37:24;5.70;;;1.42;;
77726;SDS011;68312;53.502;10.030;2023-06-04T08:39:50;2.85;;;1.17;;
77726;SDS011;68312;53.502;10.030;2023-06-04T08:42:40;5.80;;;1.50;;
77726;SDS011;68312;53.502;10.030;2023-06-04T08:45:11;3.72;;;1.73;;
77726;SDS011;68312;53.502;10.030;2023-06-04T08:47:47;3.60;;;1.40;;
77726;SDS011;68312;53.502;10.030;2023-06-04T08:50:17;3.47;;;1.40;;
77726;SDS011;68312;53.502;10.030;2023-06-04T08:55:19;14.25;;;2.08;;
77726;SDS011;68312;53.502;10.030;2023-06-04T08:57:49;2.97;;;1.52;;
77726;SDS011;68312;53.502;10.030;2023-06-04T09:00:16;5.55;;;1.50;;
77726;SDS011;68312;53.502;10.030;2023-06-04T09:02:42;4.13;;;1.42;;
77726;SDS011;68312;53.502;10.030;2023-06-04T09:05:08;3.13;;;1.33;;
77726;SDS011;68312;53.502;10.030;2023-06-04T09:07:39;4.93;;;1.48;;
77726;SDS011;68312;53.502;10.030;2023-06-04T09:10:07;4.72;;;1.33;;
77726;SDS011;68312;53.502;10.030;2023-06-04T09:12:35;4.72;;;1.25;;
77726;SDS011;68312;53.502;10.030;2023-06-04T09:15:06;4.38;;;1.35;;
77726;SDS011;68312;53.502;10.030;2023-06-04T09:17:33;3.65;;;1.10;;
77726;SDS011;68312;53.502;10.030;2023-06-04T09:19:58;6.38;;;1.50;;
77726;SDS011;68312;53.502;10.030;2023-06-04T09:22:36;3.65;;;1.35;;
77726;SDS011;68312;53.502;10.030;2023-06-04T09:25:06;7.45;;;1.55;;
77726;SDS011;68312;53.502;10.030;2023-06-04T09:27:47;2.50;;;1.10;;
77726;SDS011;68312;53.502;10.030;2023-06-04T09:30:13;3.28;;;1.27;;
77726;SDS011;68312;53.502;10.030;2023-06-04T09:32:38;5.38;;;1.77;;
77726;SDS011;68312;53.502;10.030;2023-06-04T09:37:57;3.53;;;1.00;;
77726;SDS011;68312;53.502;10.030;2023-06-04T09:40:22;2.53;;;0.80;;
77726;SDS011;68312;53.502;10.030;2023-06-04T09:42:49;3.42;;;1.65;;
77726;SDS011;68312;53.502;10.030;2023-06-04T09:45:26;2.20;;;1.05;;
77726;SDS011;68312;53.502;10.030;2023-06-04T09:47:53;2.60;;;1.00;;
77726;SDS011;68312;53.502;10.030;2023-06-04T09:50:24;4.75;;;1.10;;
77726;SDS011;68312;53.502;10.030;2023-06-04T09:52:56;1.52;;;0.82;;
77726;SDS011;68312;53.502;10.030;2023-06-04T09:55:22;4.65;;;1.30;;
77726;SDS011;68312;53.502;10.030;2023-06-04T09:57:51;2.03;;;0.95;;
77726;SDS011;68312;53.502;10.030;2023-06-04T10:00:19;7.20;;;1.40;;
77726;SDS011;68312;53.502;10.030;2023-06-04T10:02:48;2.15;;;1.02;;
77726;SDS011;68312;53.502;10.030;2023-06-04T10:07:50;5.35;;;1.20;;
77726;SDS011;68312;53.502;10.030;2023-06-04T10:10:19;4.43;;;1.10;;
77726;SDS011;68312;53.502;10.030;2023-06-04T10:12:59;3.45;;;1.10;;
77726;SDS011;68312;53.502;10.030;2023-06-04T10:15:30;3.22;;;1.02;;
77726;SDS011;68312;53.502;10.030;2023-06-04T10:18:01;3.65;;;1.10;;
77726;SDS011;68312;53.502;10.030;2023-06-04T10:20:28;3.88;;;0.90;;
77726;SDS011;68312;53.502;10.030;2023-06-04T10:22:53;2.55;;;1.00;;
77726;SDS011;68312;53.502;10.030;2023-06-04T10:25:20;2.83;;;1.10;;
77726;SDS011;68312;53.502;10.030;2023-06-04T10:27:46;4.03;;;1.00;;
77726;SDS011;68312;53.502;10.030;2023-06-04T10:30:12;5.35;;;0.93;;
77726;SDS011;68312;53.502;10.030;2023-06-04T10:32:38;3.20;;;0.98;;
77726;SDS011;68312;53.502;10.030;2023-06-04T10:35:04;4.60;;;0.93;;
77726;SDS011;68312;53.502;10.030;2023-06-04T10:37:30;3.47;;;0.80;;
77726;SDS011;68312;53.502;10.030;2023-06-04T10:39:56;2.50;;;1.00;;
77726;SDS011;68312;53.502;10.030;2023-06-04T10:42:23;3.58;;;1.10;;
77726;SDS011;68312;53.502;10.030;2023-06-04T10:44:54;1.80;;;0.80;;
77726;SDS011;68312;53.502;10.030;2023-06-04T10:47:23;4.65;;;1.52;;
77726;SDS011;68312;53.502;10.030;2023-06-04T10:49:52;3.55;;;0.85;;
77726;SDS011;68312;53.502;10.030;2023-06-04T10:52:21;2.35;;;1.05;;
77726;SDS011;68312;53.502;10.030;2023-06-04T10:54:47;3.97;;;1.08;;
77726;SDS011;68312;53.502;10.030;2023-06-04T10:57:13;4.32;;;0.90;;
77726;SDS011;68312;53.502;10.030;2023-06-04T10:59:55;4.38;;;1.10;;
77726;SDS011;68312;53.502;10.030;2023-06-04T11:02:25;3.72;;;0.90;;
77726;SDS011;68312;53.502;10.030;2023-06-04T11:07:28;2.25;;;0.90;;
77726;SDS011;68312;53.502;10.030;2023-06-04T11:09:54;3.58;;;1.20;;
77726;SDS011;68312;53.502;10.030;2023-06-04T11:12:20;3.70;;;1.10;;
77726;SDS011;68312;53.502;10.030;2023-06-04T11:14:55;2.28;;;1.00;;
77726;SDS011;68312;53.502;10.030;2023-06-04T11:17:22;8.15;;;1.40;;
77726;SDS011;68312;53.502;10.030;2023-06-04T11:19:47;3.45;;;1.00;;
77726;SDS011;68312;53.502;10.030;2023-06-04T11:22:13;2.63;;;0.80;;
77726;SDS011;68312;53.502;10.030;2023-06-04T11:24:38;4.00;;;1.00;;
77726;SDS011;68312;53.502;10.030;2023-06-04T11:27:04;3.38;;;1.25;;
77726;SDS011;68312;53.502;10.030;2023-06-04T11:29:30;3.55;;;1.17;;
77726;SDS011;68312;53.502;10.030;2023-06-04T11:31:55;2.78;;;0.90;;
77726;SDS011;68312;53.502;10.030;2023-06-04T11:34:24;3.65;;;1.10;;
77726;SDS011;68312;53.502;10.030;2023-06-04T11:36:53;2.22;;;0.93;;
77726;SDS011;68312;53.502;10.030;2023-06-04T11:39:22;2.38;;;0.80;;
77726;SDS011;68312;53.502;10.030;2023-06-04T11:41:48;2.97;;;1.08;;
77726;SDS011;68312;53.502;10.030;2023-06-04T11:44:17;2.55;;;0.82;;
77726;SDS011;68312;53.502;10.030;2023-06-04T11:46:45;3.58;;;1.20;;
77726;SDS011;68312;53.502;10.030;2023-06-04T11:49:11;3.13;;;1.20;;
77726;SDS011;68312;53.502;10.030;2023-06-04T11:51:47;4.47;;;1.40;;
77726;SDS011;68312;53.502;10.030;2023-06-04T11:54:18;4.97;;;1.17;;
77726;SDS011;68312;53.502;10.030;2023-06-04T11:56:48;3.45;;;1.63;;
77726;SDS011;68312;53.502;10.030;2023-06-04T11:59:16;4.95;;;1.50;;
77726;SDS011;68312;53.502;10.030;2023-06-04T12:01:43;5.18;;;1.33;;
77726;SDS011;68312;53.502;10.030;2023-06-04T12:04:20;6.78;;;1.20;;
77726;SDS011;68312;53.502;10.030;2023-06-04T12:06:52;5.10;;;1.23;;
77726;SDS011;68312;53.502;10.030;2023-06-04T12:09:35;4.18;;;1.10;;
77726;SDS011;68312;53.502;10.030;2023-06-04T12:12:04;3.65;;;1.10;;
77726;SDS011;68312;53.502;10.030;2023-06-04T12:14:32;3.85;;;1.10;;
77726;SDS011;68312;53.502;10.030;2023-06-04T12:17:08;3.90;;;1.40;;
77726;SDS011;68312;53.502;10.030;2023-06-04T12:19:45;2.42;;;1.00;;
77726;SDS011;68312;53.502;10.030;2023-06-04T12:22:13;3.15;;;1.15;;
77726;SDS011;68312;53.502;10.030;2023-06-04T12:24:51;3.22;;;1.25;;
77726;SDS011;68312;53.502;10.030;2023-06-04T12:27:22;4.15;;;1.30;;
77726;SDS011;68312;53.502;10.030;2023-06-04T12:32:29;3.42;;;1.00;;
77726;SDS011;68312;53.502;10.030;2023-06-04T12:34:54;6.30;;;1.65;;
77726;SDS011;68312;53.502;10.030;2023-06-04T12:37:21;3.30;;;1.02;;
77726;SDS011;68312;53.502;10.030;2023-06-04T12:39:48;4.53;;;1.38;;
77726;SDS011;68312;53.502;10.030;2023-06-04T12:42:14;4.85;;;1.48;;
77726;SDS011;68312;53.502;10.030;2023-06-04T12:44:39;3.97;;;1.40;;
77726;SDS011;68312;53.502;10.030;2023-06-04T12:47:06;6.65;;;1.20;;
77726;SDS011;68312;53.502;10.030;2023-06-04T12:49:33;3.38;;;1.52;;
77726;SDS011;68312;53.502;10.030;2023-06-04T12:51:59;4.30;;;1.20;;
77726;SDS011;68312;53.502;10.030;2023-06-04T12:54:25;4.30;;;1.33;;
77726;SDS011;68312;53.502;10.030;2023-06-04T12:56:50;4.22;;;1.10;;
77726;SDS011;68312;53.502;10.030;2023-06-04T12:59:16;3.05;;;1.10;;
77726;SDS011;68312;53.502;10.030;2023-06-04T13:01:41;2.58;;;0.93;;
77726;SDS011;68312;53.502;10.030;2023-06-04T13:04:07;5.68;;;1.30;;
77726;SDS011;68312;53.502;10.030;2023-06-04T13:06:33;3.38;;;1.10;;
77726;SDS011;68312;53.502;10.030;2023-06-04T13:09:04;3.35;;;1.30;;
77726;SDS011;68312;53.502;10.030;2023-06-04T13:11:31;3.72;;;1.35;;
77726;SDS011;68312;53.502;10.030;2023-06-04T13:13:57;3.75;;;1.10;;
77726;SDS011;68312;53.502;10.030;2023-06-04T13:16:22;3.60;;;1.00;;
77726;SDS011;68312;53.502;10.030;2023-06-04T13:18:48;3.15;;;1.15;;
77726;SDS011;68312;53.502;10.030;2023-06-04T13:21:13;4.15;;;1.00;;
77726;SDS011;68312;53.502;10.030;2023-06-04T13:23:39;5.00;;;1.45;;
77726;SDS011;68312;53.502;10.030;2023-06-04T13:26:04;3.55;;;1.13;;
77726;SDS011;68312;53.502;10.030;2023-06-04T13:28:30;2.50;;;1.15;;
77726;SDS011;68312;53.502;10.030;2023-06-04T13:30:55;2.30;;;1.08;;
77726;SDS011;68312;53.502;10.030;2023-06-04T13:33:23;2.65;;;1.00;;
77726;SDS011;68312;53.502;10.030;2023-06-04T13:35:49;4.30;;;1.10;;
77726;SDS011;68312;53.502;10.030;2023-06-04T13:38:14;3.05;;;1.30;;
77726;SDS011;68312;53.502;10.030;2023-06-04T13:40:40;2.20;;;1.20;;
77726;SDS011;68312;53.502;10.030;2023-06-04T13:43:05;5.43;;;1.00;;
77726;SDS011;68312;53.502;10.030;2023-06-04T13:45:31;6.57;;;1.42;;
77726;SDS011;68312;53.502;10.030;2023-06-04T13:47:56;4.28;;;1.23;;
77726;SDS011;68312;53.502;10.030;2023-06-04T13:50:22;4.97;;;1.15;;
77726;SDS011;68312;53.502;10.030;2023-06-04T13:52:47;2.97;;;1.00;;
77726;SDS011;68312;53.502;10.030;2023-06-04T13:55:12;4.40;;;1.25;;
77726;SDS011;68312;53.502;10.030;2023-06-04T13:57:38;3.42;;;1.20;;
77726;SDS011;68312;53.502;10.030;2023-06-04T14:00:04;2.15;;;1.00;;
77726;SDS011;68312;53.502;10.030;2023-06-04T14:02:31;9.43;;;1.08;;
77726;SDS011;68312;53.502;10.030;2023-06-04T14:04:56;9.93;;;1.17;;
77726;SDS011;68312;53.502;10.030;2023-06-04T14:07:22;3.83;;;1.20;;
77726;SDS011;68312;53.502;10.030;2023-06-04T14:09:47;3.65;;;1.10;;
77726;SDS011;68312;53.502;10.030;2023-06-04T14:12:13;3.03;;;1.08;;
77726;SDS011;68312;53.502;10.030;2023-06-04T14:14:38;4.63;;;1.20;;
77726;SDS011;68312;53.502;10.030;2023-06-04T14:17:04;9.27;;;1.05;;
77726;SDS011;68312;53.502;10.030;2023-06-04T14:19:34;3.20;;;1.27;;
77726;SDS011;68312;53.502;10.030;2023-06-04T14:22:00;7.13;;;1.50;;
77726;SDS011;68312;53.502;10.030;2023-06-04T14:24:27;6.25;;;1.50;;
77726;SDS011;68312;53.502;10.030;2023-06-04T14:26:52;2.47;;;1.00;;
77726;SDS011;68312;53.502;10.030;2023-06-04T14:29:18;3.78;;;1.20;;
77726;SDS011;68312;53.502;10.030;2023-06-04T14:31:43;4.63;;;1.00;;
77726;SDS011;68312;53.502;10.030;2023-06-04T14:34:09;4.10;;;0.90;;
77726;SDS011;68312;53.502;10.030;2023-06-04T14:36:34;2.20;;;1.00;;
77726;SDS011;68312;53.502;10.030;2023-06-04T14:39:03;4.65;;;1.30;;
77726;SDS011;68312;53.502;10.030;2023-06-04T14:41:28;4.88;;;1.10;;
77726;SDS011;68312;53.502;10.030;2023-06-04T14:43:53;2.38;;;0.85;;
77726;SDS011;68312;53.502;10.030;2023-06-04T14:46:19;2.58;;;1.40;;
77726;SDS011;68312;53.502;10.030;2023-06-04T14:48:44;4.25;;;1.10;;
77726;SDS011;68312;53.502;10.030;2023-06-04T14:51:10;5.85;;;1.20;;